createdAt,value
2022-10-25T00:01:38.152Z,118.60
2022-10-25T00:04:05.810Z,118.33
2022-10-25T00:06:33.228Z,118.43
2022-10-25T00:09:00.931Z,118.43
2022-10-25T00:11:31.205Z,118.57
2022-10-25T00:14:04.106Z,118.30
2022-10-25T00:16:36.678Z,118.90
2022-10-25T00:19:05.594Z,118.20
2022-10-25T00:21:33.041Z,118.80
2022-10-25T00:24:00.242Z,118.40
2022-10-25T00:26:27.751Z,118.30
2022-10-25T00:28:55.833Z,118.40
2022-10-25T00:31:24.492Z,119.07
2022-10-25T00:33:51.942Z,118.37
2022-10-25T00:36:22.294Z,118.60
2022-10-25T00:38:50.180Z,117.77
2022-10-25T00:41:23.982Z,117.67
2022-10-25T00:43:55.553Z,119.37
2022-10-25T00:46:30.154Z,119.03
2022-10-25T00:49:18.614Z,118.50
2022-10-25T00:51:59.734Z,119.10
2022-10-25T00:54:39.413Z,118.47
2022-10-25T00:57:29.963Z,119.07
2022-10-25T00:59:57.522Z,118.83
2022-10-25T01:02:24.895Z,118.37
2022-10-25T01:04:53.534Z,119.07
2022-10-25T01:07:20.604Z,118.60
2022-10-25T01:09:48.338Z,118.90
2022-10-25T01:12:15.326Z,119.37
2022-10-25T01:14:49.718Z,119.77
2022-10-25T01:17:48.442Z,117.30
2022-10-25T01:21:30.634Z,118.37
2022-10-25T01:24:44.235Z,118.20
2022-10-25T01:28:05.326Z,117.13
2022-10-25T01:31:22.531Z,119.17
2022-10-25T01:34:10.651Z,118.33
2022-10-25T01:37:17.615Z,117.70
2022-10-25T01:39:59.762Z,119.20
2022-10-25T01:42:54.962Z,119.77
2022-10-25T01:45:29.742Z,118.83
2022-10-25T01:48:10.431Z,119.57
2022-10-25T01:50:43.283Z,118.67
2022-10-25T01:53:10.425Z,118.97
2022-10-25T01:55:54.707Z,119.03
2022-10-25T01:59:14.755Z,119.03
2022-10-25T02:02:13.315Z,118.57
2022-10-25T02:05:18.603Z,119.30
2022-10-25T02:08:35.911Z,117.43
2022-10-25T02:11:27.539Z,118.90
2022-10-25T02:14:14.975Z,119.57
2022-10-25T02:17:14.783Z,119.53
2022-10-25T02:19:49.979Z,120.27
2022-10-25T02:22:21.884Z,118.87
2022-10-25T02:24:51.672Z,119.33
2022-10-25T02:27:23.049Z,118.47
2022-10-25T02:29:53.511Z,118.97
2022-10-25T02:32:21.343Z,119.07
2022-10-25T02:34:49.367Z,118.97
2022-10-25T02:37:17.874Z,119.53
2022-10-25T02:39:45.949Z,117.60
2022-10-25T02:42:13.444Z,120.17
2022-10-25T02:44:40.418Z,119.70
2022-10-25T02:47:07.832Z,119.30
2022-10-25T02:49:34.844Z,118.77
2022-10-25T02:52:02.312Z,120.00
2022-10-25T02:54:29.736Z,119.97
2022-10-25T02:56:57.243Z,118.30
2022-10-25T02:59:24.904Z,118.97
2022-10-25T03:01:51.922Z,119.60
2022-10-25T03:04:19.027Z,119.10
2022-10-25T03:06:45.981Z,118.67
2022-10-25T03:09:13.097Z,119.20
2022-10-25T03:11:40.072Z,118.37
2022-10-25T03:14:07.524Z,119.50
2022-10-25T03:16:35.009Z,119.50
2022-10-25T03:19:02.050Z,119.70
2022-10-25T03:21:29.455Z,120.00
2022-10-25T03:23:56.557Z,119.60
2022-10-25T03:26:23.730Z,120.17
2022-10-25T03:28:50.729Z,118.07
2022-10-25T03:31:20.522Z,117.87
2022-10-25T03:33:47.802Z,119.10
2022-10-25T03:36:15.237Z,118.80
2022-10-25T03:38:42.225Z,118.17
2022-10-25T03:41:09.748Z,118.50
2022-10-25T03:43:36.818Z,119.07
2022-10-25T03:46:04.068Z,118.43
2022-10-25T03:48:31.117Z,119.00
2022-10-25T03:50:58.102Z,118.57
2022-10-25T03:53:25.156Z,117.47
2022-10-25T03:55:52.102Z,119.70
2022-10-25T03:58:19.680Z,119.40
2022-10-25T04:00:46.807Z,119.17
2022-10-25T04:03:14.275Z,117.67
2022-10-25T04:05:41.239Z,118.87
2022-10-25T04:08:08.674Z,118.47
2022-10-25T04:10:35.717Z,117.67
2022-10-25T04:13:03.168Z,119.37
2022-10-25T04:15:30.626Z,118.67
2022-10-25T04:17:57.611Z,117.67
2022-10-25T04:20:24.658Z,118.67
2022-10-25T04:22:56.842Z,120.03
2022-10-25T04:25:27.159Z,120.17
2022-10-25T04:27:54.598Z,119.40
2022-10-25T04:30:22.211Z,118.90
2022-10-25T04:32:50.057Z,119.33
2022-10-25T04:35:17.859Z,119.00
2022-10-25T04:37:45.297Z,119.80
2022-10-25T04:40:12.915Z,119.30
2022-10-25T04:42:39.938Z,118.17
2022-10-25T04:45:07.584Z,117.93
2022-10-25T04:47:34.903Z,119.77
2022-10-25T04:50:02.225Z,117.70
2022-10-25T04:52:30.442Z,119.07
2022-10-25T04:54:58.282Z,118.67
2022-10-25T04:57:26.421Z,118.97
2022-10-25T04:59:53.754Z,119.67
2022-10-25T05:02:20.822Z,119.60
2022-10-25T05:04:47.876Z,119.10
2022-10-25T05:07:19.041Z,119.37
2022-10-25T05:09:47.541Z,119.40
2022-10-25T05:12:15.663Z,118.57
2022-10-25T05:14:44.043Z,118.80
2022-10-25T05:17:10.999Z,118.37
2022-10-25T05:19:38.422Z,118.37
2022-10-25T05:22:05.428Z,118.07
2022-10-25T05:24:32.904Z,118.90
2022-10-25T05:27:00.361Z,119.50
2022-10-25T05:29:27.899Z,117.10
2022-10-25T05:31:55.367Z,119.47
2022-10-25T05:34:22.456Z,117.03
2022-10-25T05:36:49.488Z,118.67
2022-10-25T05:39:16.491Z,117.20
2022-10-25T05:41:43.447Z,119.70
2022-10-25T05:44:10.955Z,117.90
2022-10-25T05:46:38.335Z,118.50
2022-10-25T05:49:05.765Z,118.50
2022-10-25T05:51:35.373Z,118.37
2022-10-25T05:54:12.660Z,117.57
2022-10-25T05:56:41.862Z,119.10
2022-10-25T05:59:14.969Z,118.30
2022-10-25T06:01:47.045Z,119.07
2022-10-25T06:04:15.872Z,117.67
2022-10-25T06:06:46.543Z,118.30
2022-10-25T06:09:14.516Z,116.70
2022-10-25T06:11:41.955Z,119.20
2022-10-25T06:14:10.798Z,118.77
2022-10-25T06:16:38.759Z,118.77
2022-10-25T06:19:06.681Z,117.80
2022-10-25T06:21:34.161Z,116.53
2022-10-25T06:24:01.676Z,118.00
2022-10-25T06:26:30.960Z,117.60
2022-10-25T06:29:02.563Z,118.10
2022-10-25T06:31:31.805Z,117.67
2022-10-25T06:34:03.137Z,118.87
2022-10-25T06:36:31.599Z,118.50
2022-10-25T06:39:05.433Z,118.43
2022-10-25T06:41:37.041Z,117.97
2022-10-25T06:44:06.680Z,118.17
2022-10-25T06:47:04.540Z,117.40
2022-10-25T06:49:26.073Z,117.90
2022-10-25T06:51:53.065Z,117.87
2022-10-25T06:54:20.479Z,118.40
2022-10-25T06:56:48.106Z,117.50
2022-10-25T06:59:15.537Z,117.93
2022-10-25T07:01:43.075Z,117.07
2022-10-25T07:04:10.601Z,118.80
2022-10-25T07:06:37.811Z,118.27
2022-10-25T07:09:06.502Z,117.90
2022-10-25T07:11:34.000Z,118.20
2022-10-25T07:14:04.114Z,117.60
2022-10-25T07:16:31.930Z,117.97
2022-10-25T07:19:04.083Z,117.40
2022-10-25T07:21:33.333Z,117.67
2022-10-25T07:24:00.833Z,117.57
2022-10-25T07:26:34.894Z,117.50
2022-10-25T07:29:04.059Z,117.50
2022-10-25T07:31:40.695Z,117.80
2022-10-25T07:34:08.073Z,117.37
2022-10-25T07:36:35.576Z,117.57
2022-10-25T07:39:02.564Z,117.40
2022-10-25T07:41:29.660Z,117.70
2022-10-25T07:43:57.110Z,117.80
2022-10-25T07:46:24.482Z,117.70
2022-10-25T07:48:54.409Z,117.30
2022-10-25T07:51:21.926Z,117.90
2022-10-25T07:53:49.790Z,117.70
2022-10-25T07:56:23.193Z,118.07
2022-10-25T07:58:52.532Z,118.17
2022-10-25T08:03:44.520Z,118.10
2022-10-25T08:06:11.595Z,117.87
2022-10-25T08:08:38.603Z,118.57
2022-10-25T08:11:08.868Z,117.77
2022-10-25T08:13:38.274Z,118.47
2022-10-25T08:16:06.995Z,117.90
2022-10-25T08:18:35.146Z,117.70
2022-10-25T08:21:04.152Z,118.20
2022-10-25T08:23:33.154Z,118.10
2022-10-25T08:26:02.021Z,118.07
2022-10-25T08:28:31.182Z,118.03
2022-10-25T08:31:00.538Z,118.10
2022-10-25T08:33:27.780Z,117.73
2022-10-25T08:35:54.756Z,117.37
2022-10-25T08:38:22.164Z,117.27
2022-10-25T08:41:19.484Z,118.10
2022-10-25T08:44:51.592Z,118.57
2022-10-25T08:47:25.072Z,117.37
2022-10-25T08:50:19.222Z,117.37
2022-10-25T08:52:50.110Z,116.90
2022-10-25T08:55:41.647Z,117.67
2022-10-25T08:58:46.157Z,117.53
2022-10-25T09:01:23.942Z,117.13
2022-10-25T09:03:51.561Z,117.43
2022-10-25T09:06:23.173Z,117.10
2022-10-25T09:09:39.774Z,117.83
2022-10-25T09:12:40.042Z,118.20
2022-10-25T09:16:05.548Z,117.80
2022-10-25T09:18:54.117Z,118.57
2022-10-25T09:21:45.816Z,118.27
2022-10-25T09:24:30.029Z,117.93
2022-10-25T09:27:29.241Z,118.67
2022-10-25T09:30:08.834Z,117.80
2022-10-25T09:32:57.778Z,117.50
2022-10-25T09:35:41.285Z,117.50
2022-10-25T09:38:58.187Z,117.30
2022-10-25T09:41:33.821Z,117.37
2022-10-25T09:44:11.001Z,117.20
2022-10-25T09:46:54.089Z,116.43
2022-10-25T09:50:26.751Z,117.07
2022-10-25T09:53:16.466Z,116.77
2022-10-25T09:56:01.773Z,116.47
2022-10-25T09:58:41.423Z,116.07
2022-10-25T10:01:28.894Z,116.70
2022-10-25T10:04:23.562Z,116.20
2022-10-25T10:06:54.105Z,116.77
2022-10-25T10:09:23.183Z,116.73
2022-10-25T10:11:54.349Z,117.07
2022-10-25T10:14:41.784Z,116.97
2022-10-25T10:17:17.206Z,116.67
2022-10-25T10:19:44.313Z,116.77
2022-10-25T10:22:17.066Z,116.57
2022-10-25T10:24:49.216Z,116.50
2022-10-25T10:27:22.114Z,117.07
2022-10-25T10:30:00.505Z,116.83
2022-10-25T10:32:36.966Z,116.90
2022-10-25T10:35:25.074Z,117.70
2022-10-25T10:37:52.031Z,117.80
2022-10-25T10:40:19.270Z,117.80
2022-10-25T10:42:47.067Z,118.07
2022-10-25T10:45:18.806Z,117.87
2022-10-25T10:47:51.506Z,117.77
2022-10-25T10:50:25.487Z,117.47
2022-10-25T10:53:08.829Z,117.70
2022-10-25T10:55:50.514Z,117.43
2022-10-25T10:58:40.822Z,116.77
2022-10-25T11:01:36.243Z,115.87
2022-10-25T11:04:03.450Z,114.47
2022-10-25T11:06:35.357Z,114.90
2022-10-25T11:09:17.619Z,114.30
2022-10-25T11:12:11.274Z,115.00
2022-10-25T11:14:39.550Z,115.33
2022-10-25T11:17:37.171Z,114.77
2022-10-25T11:20:50.975Z,115.07
2022-10-25T11:23:52.087Z,115.47
2022-10-25T11:26:56.235Z,115.97
2022-10-25T11:30:10.533Z,116.07
2022-10-25T11:33:14.551Z,116.00
2022-10-25T11:36:31.920Z,116.97
2022-10-25T11:39:30.732Z,116.40
2022-10-25T11:42:58.568Z,117.07
2022-10-25T11:45:48.298Z,116.70
2022-10-25T11:49:37.160Z,116.57
2022-10-25T11:52:27.804Z,117.67
2022-10-25T11:55:23.490Z,117.87
2022-10-25T11:58:39.428Z,117.23
2022-10-25T12:01:59.360Z,117.30
2022-10-25T12:05:15.787Z,117.37
2022-10-25T12:08:41.648Z,118.37
2022-10-25T12:11:24.377Z,117.57
2022-10-25T12:13:59.824Z,118.10
2022-10-25T12:16:31.361Z,118.20
2022-10-25T12:19:24.886Z,117.63
2022-10-25T12:22:04.821Z,118.37
2022-10-25T12:24:53.097Z,118.47
2022-10-25T12:27:23.075Z,118.30
2022-10-25T12:30:05.478Z,118.37
2022-10-25T12:32:44.392Z,117.53
2022-10-25T12:35:46.936Z,118.43
2022-10-25T12:38:33.012Z,117.77
2022-10-25T12:41:26.157Z,117.77
2022-10-25T12:44:14.376Z,118.17
2022-10-25T12:47:50.032Z,117.80
2022-10-25T12:51:19.001Z,117.50
2022-10-25T12:54:35.193Z,117.80
2022-10-25T12:57:53.517Z,117.10
2022-10-25T13:00:23.054Z,117.27
2022-10-25T13:03:33.857Z,116.87
2022-10-25T13:06:40.800Z,117.10
2022-10-25T13:09:14.686Z,116.90
2022-10-25T13:11:51.152Z,116.90
2022-10-25T13:14:25.349Z,117.00
2022-10-25T13:16:53.195Z,116.57
2022-10-25T13:19:49.875Z,115.40
2022-10-25T13:22:39.823Z,115.33
2022-10-25T13:25:12.913Z,115.30
2022-10-25T13:28:16.093Z,115.77
2022-10-25T13:30:44.497Z,115.17
2022-10-25T13:33:33.168Z,113.73
2022-10-25T13:36:03.482Z,113.77
2022-10-25T13:38:39.317Z,114.67
2022-10-25T13:41:19.097Z,114.37
2022-10-25T13:44:06.416Z,114.10
2022-10-25T13:46:39.704Z,113.93
2022-10-25T13:49:44.109Z,112.87
2022-10-25T13:52:33.457Z,114.00
2022-10-25T13:55:10.025Z,113.70
2022-10-25T13:57:58.607Z,114.57
2022-10-25T14:00:47.942Z,114.10
2022-10-25T14:03:19.542Z,112.83
2022-10-25T14:06:09.787Z,115.30
2022-10-25T14:09:22.573Z,115.77
2022-10-25T14:12:06.573Z,115.47
2022-10-25T14:15:09.826Z,115.30
2022-10-25T14:17:44.099Z,115.77
2022-10-25T14:20:31.668Z,115.37
2022-10-25T14:23:06.754Z,115.40
2022-10-25T14:25:50.945Z,115.87
2022-10-25T14:28:27.272Z,115.53
2022-10-25T14:31:01.119Z,115.77
2022-10-25T14:33:54.217Z,114.23
2022-10-25T14:36:32.083Z,114.73
2022-10-25T14:39:19.387Z,114.90
2022-10-25T14:42:01.019Z,115.77
2022-10-25T14:44:31.567Z,114.83
2022-10-25T14:47:00.503Z,115.27
2022-10-25T14:49:27.988Z,115.40
2022-10-25T14:52:09.515Z,115.30
2022-10-25T14:54:37.928Z,114.70
2022-10-25T14:57:08.499Z,115.93
2022-10-25T14:59:48.583Z,115.50
2022-10-25T15:02:25.828Z,115.20
2022-10-25T15:04:58.444Z,115.70
2022-10-25T15:07:47.003Z,116.17
2022-10-25T15:10:45.956Z,116.40
2022-10-25T15:13:43.152Z,116.93
2022-10-25T15:16:27.455Z,116.63
2022-10-25T15:19:14.259Z,117.93
2022-10-25T15:21:52.952Z,118.33
2022-10-25T15:24:27.471Z,118.20
2022-10-25T15:27:05.656Z,118.27
2022-10-25T15:29:41.774Z,118.30
2022-10-25T15:32:18.397Z,118.90
2022-10-25T15:34:56.218Z,118.40
2022-10-25T15:37:25.948Z,118.73
2022-10-25T15:39:55.524Z,118.70
2022-10-25T15:42:25.949Z,119.10
2022-10-25T15:44:53.383Z,118.57
2022-10-25T15:47:29.141Z,119.07
2022-10-25T15:49:56.933Z,118.83
2022-10-25T15:52:24.706Z,119.90
2022-10-25T15:54:52.094Z,119.27
2022-10-25T15:57:19.521Z,119.50
2022-10-25T15:59:46.561Z,120.23
2022-10-25T16:02:31.709Z,120.20
2022-10-25T16:04:58.673Z,120.70
2022-10-25T16:07:26.041Z,121.00
2022-10-25T16:09:53.422Z,120.80
2022-10-25T16:12:32.093Z,120.17
2022-10-25T16:14:59.140Z,121.00
2022-10-25T16:17:26.093Z,120.90
2022-10-25T16:19:53.477Z,120.80
2022-10-25T16:22:20.843Z,120.40
2022-10-25T16:24:48.361Z,120.83
2022-10-25T16:27:15.558Z,120.80
2022-10-25T16:29:43.965Z,121.30
2022-10-25T16:32:11.398Z,121.30
2022-10-25T16:34:42.282Z,120.83
2022-10-25T16:37:11.880Z,121.40
2022-10-25T16:39:39.597Z,121.00
2022-10-25T16:42:43.877Z,120.60
2022-10-25T16:45:32.433Z,120.73
2022-10-25T16:48:00.274Z,121.20
2022-10-25T16:50:30.377Z,119.30
2022-10-25T16:53:03.383Z,121.20
2022-10-25T16:55:31.390Z,121.30
2022-10-25T16:58:00.643Z,120.67
2022-10-25T17:00:31.937Z,120.27
2022-10-25T17:02:59.060Z,120.93
2022-10-25T17:05:29.898Z,120.57
2022-10-25T17:07:57.895Z,120.90
2022-10-25T17:10:25.263Z,121.20
2022-10-25T17:13:01.494Z,121.40
2022-10-25T17:15:30.658Z,120.67
2022-10-25T17:17:58.550Z,120.97
2022-10-25T17:20:26.056Z,121.47
2022-10-25T17:22:54.490Z,120.97
2022-10-25T17:25:21.926Z,120.17
2022-10-25T17:27:53.606Z,120.97
2022-10-25T17:30:21.595Z,121.30
2022-10-25T17:32:49.012Z,121.37
2022-10-25T17:35:16.123Z,121.67
2022-10-25T17:37:44.367Z,121.60
2022-10-25T17:40:16.157Z,121.57
2022-10-25T17:42:43.604Z,122.17
2022-10-25T17:45:11.472Z,120.10
2022-10-25T17:47:42.381Z,120.80
2022-10-25T17:50:12.616Z,121.50
2022-10-25T17:52:42.106Z,121.07
2022-10-25T17:55:11.127Z,121.33
2022-10-25T17:57:38.528Z,120.87
2022-10-25T18:00:07.236Z,120.90
2022-10-25T18:02:41.496Z,121.80
2022-10-25T18:05:19.881Z,120.80
2022-10-25T18:07:48.865Z,121.47
2022-10-25T18:10:16.372Z,121.27
2022-10-25T18:12:43.815Z,121.23
2022-10-25T18:15:11.872Z,121.00
2022-10-25T18:17:40.588Z,120.73
2022-10-25T18:20:08.695Z,120.47
2022-10-25T18:22:36.225Z,122.07
2022-10-25T18:25:03.799Z,122.10
2022-10-25T18:27:31.220Z,119.83
2022-10-25T18:29:58.212Z,121.00
2022-10-25T18:32:32.138Z,120.27
2022-10-25T18:35:02.345Z,121.27
2022-10-25T18:37:29.780Z,121.60
2022-10-25T18:39:57.204Z,122.00
2022-10-25T18:42:24.660Z,121.47
2022-10-25T18:44:52.886Z,121.53
2022-10-25T18:47:19.884Z,121.83
2022-10-25T18:49:47.280Z,121.37
2022-10-25T18:52:14.229Z,119.77
2022-10-25T18:54:41.624Z,121.97
2022-10-25T18:57:09.018Z,121.40
2022-10-25T18:59:36.444Z,121.13
2022-10-25T19:02:03.978Z,122.20
2022-10-25T19:04:31.125Z,121.40
2022-10-25T19:06:58.534Z,120.57
2022-10-25T19:09:25.985Z,121.60
2022-10-25T19:11:53.517Z,121.37
2022-10-25T19:14:20.901Z,121.00
2022-10-25T19:16:48.282Z,121.07
2022-10-25T19:19:15.333Z,121.30
2022-10-25T19:21:42.981Z,120.93
2022-10-25T19:24:13.898Z,121.23
2022-10-25T19:26:41.856Z,121.17
2022-10-25T19:29:09.882Z,121.77
2022-10-25T19:31:37.323Z,119.67
2022-10-25T19:34:04.753Z,121.20
2022-10-25T19:36:32.521Z,121.63
2022-10-25T19:39:01.277Z,121.10
2022-10-25T19:41:28.683Z,122.03
2022-10-25T19:43:56.732Z,121.27
2022-10-25T19:46:24.281Z,120.30
2022-10-25T19:48:51.841Z,120.57
2022-10-25T19:51:20.511Z,121.07
2022-10-25T19:53:48.651Z,120.17
2022-10-25T19:56:20.614Z,120.30
2022-10-25T19:58:48.651Z,121.47
2022-10-25T20:01:23.593Z,120.80
2022-10-25T20:04:00.671Z,121.77
2022-10-25T20:06:33.701Z,120.90
2022-10-25T20:09:01.986Z,119.90
2022-10-25T20:11:31.254Z,121.77
2022-10-25T20:14:02.035Z,120.03
2022-10-25T20:16:30.915Z,120.30
2022-10-25T20:19:01.335Z,121.67
2022-10-25T20:21:36.375Z,120.47
2022-10-25T20:24:08.052Z,119.90
2022-10-25T20:26:39.632Z,119.60
2022-10-25T20:29:21.216Z,120.40
2022-10-25T20:31:50.563Z,121.37
2022-10-25T20:34:19.507Z,120.17
2022-10-25T20:36:47.786Z,119.90
2022-10-25T20:39:15.428Z,121.27
2022-10-25T20:41:42.867Z,121.07
2022-10-25T20:44:10.777Z,121.20
2022-10-25T20:46:37.747Z,121.07
2022-10-25T20:49:07.244Z,121.33
2022-10-25T20:51:34.951Z,120.83
2022-10-25T20:54:09.090Z,120.27
2022-10-25T20:56:37.083Z,120.57
2022-10-25T20:59:05.020Z,121.83
2022-10-25T21:01:32.330Z,121.40
2022-10-25T21:03:59.443Z,121.47
2022-10-25T21:06:26.935Z,120.87
2022-10-25T21:08:53.905Z,121.23
2022-10-25T21:11:21.379Z,121.17
2022-10-25T21:13:48.751Z,121.33
2022-10-25T21:16:16.700Z,121.17
2022-10-25T21:18:44.499Z,119.87
2022-10-25T21:21:19.424Z,120.93
2022-10-25T21:23:47.744Z,120.73
2022-10-25T21:26:15.492Z,121.03
2022-10-25T21:28:42.963Z,121.40
2022-10-25T21:31:14.201Z,119.97
2022-10-25T21:33:49.768Z,121.47
2022-10-25T21:36:20.069Z,119.87
2022-10-25T21:38:47.865Z,120.77
2022-10-25T21:41:26.486Z,121.27
2022-10-25T21:43:55.286Z,119.87
2022-10-25T21:46:25.008Z,120.03
2022-10-25T21:48:53.176Z,120.40
2022-10-25T21:51:25.997Z,121.13
2022-10-25T21:53:54.736Z,119.17
2022-10-25T21:56:23.201Z,120.50
2022-10-25T21:58:50.967Z,120.80
2022-10-25T22:01:29.526Z,119.90
2022-10-25T22:03:57.413Z,120.57
2022-10-25T22:06:27.050Z,120.30
2022-10-25T22:08:55.837Z,120.10
2022-10-25T22:11:31.198Z,119.17
2022-10-25T22:14:05.106Z,119.63
2022-10-25T22:16:33.557Z,119.80
2022-10-25T22:19:05.822Z,119.87
2022-10-25T22:21:39.129Z,119.80
2022-10-25T22:24:09.344Z,119.80
2022-10-25T22:26:41.004Z,117.13
2022-10-25T22:29:12.613Z,119.40
2022-10-25T22:31:40.559Z,119.50
2022-10-25T22:34:09.258Z,119.47
2022-10-25T22:36:40.657Z,118.80
2022-10-25T22:39:09.243Z,119.40
2022-10-25T22:41:36.958Z,119.30
2022-10-25T22:44:04.818Z,119.27
2022-10-25T22:46:35.662Z,120.20
2022-10-25T22:49:09.200Z,119.70
2022-10-25T22:51:37.798Z,119.80
2022-10-25T22:54:05.684Z,120.20
2022-10-25T22:56:33.682Z,119.97
2022-10-25T22:59:04.989Z,120.30
2022-10-25T23:01:36.602Z,120.20
2022-10-25T23:04:08.754Z,120.00
2022-10-25T23:06:40.044Z,120.20
2022-10-25T23:09:10.440Z,120.00
2022-10-25T23:11:40.491Z,119.87
2022-10-25T23:14:13.304Z,120.43
2022-10-25T23:16:45.102Z,118.77
2022-10-25T23:19:12.170Z,119.77
2022-10-25T23:21:39.187Z,119.90
2022-10-25T23:24:06.465Z,121.17
2022-10-25T23:26:36.246Z,120.07
2022-10-25T23:29:04.708Z,120.27
2022-10-25T23:31:32.540Z,120.47
2022-10-25T23:34:00.796Z,119.60
2022-10-25T23:36:37.204Z,119.40
2022-10-25T23:39:07.229Z,120.07
2022-10-25T23:41:34.656Z,119.17
2022-10-25T23:44:02.118Z,119.00
2022-10-25T23:46:29.575Z,120.57
2022-10-25T23:48:57.243Z,119.80
2022-10-25T23:51:24.179Z,119.70
2022-10-25T23:53:51.935Z,120.87
2022-10-25T23:56:19.323Z,120.37
2022-10-25T23:58:53.219Z,119.47
